This is the latest recevied weather packets stored in our database for station/object W6MAF. If no packets are shown the sender has not sent any weather packets the latest 10 day(s).
| Time | Temp. | Humidity | Pressure | Rain* | Wind** | Luminosity | Snow |
|---|---|---|---|---|---|---|---|
| 1777851546 | 15° C | 45% | - | 0 mm | 8.94 m/s, 215° | - | - |
| 1777851250 | 15° C | 43% | - | 0 mm | 9.83 m/s, 203° | - | - |
| 1777851247 | 15° C | 45% | - | 0 mm | 10.28 m/s, 205° | - | - |
| 1777850950 | 15° C | 43% | - | 0 mm | 9.83 m/s, 203° | - | - |
| 1777850652 | 15° C | 42% | - | 0 mm | 10.28 m/s, 169° | - | - |
| 1777850354 | 15.56° C | 42% | - | 0 mm | 10.28 m/s, 203° | - | - |
| 1777850214 | 16.11° C | 42% | - | 0 mm | 8.49 m/s, 195° | - | - |
| 1777850053 | 16.11° C | 42% | - | 0 mm | 8.49 m/s, 195° | - | - |
| 1777849756 | 15.56° C | 43% | - | 0 mm | 7.6 m/s, 214° | - | - |
| 1777849458 | 15.56° C | 42% | - | 0 mm | 9.39 m/s, 194° | - | - |
| 1777849160 | 15.56° C | 42% | - | 0 mm | 9.39 m/s, 188° | - | - |
| 1777848863 | 16.11° C | 39% | - | 0 mm | 10.73 m/s, 207° | - | - |
| 1777848565 | 16.11° C | 40% | - | 0 mm | 9.83 m/s, 197° | - | - |
| 1777848264 | 16.11° C | 40% | - | 0 mm | 8.94 m/s, 191° | - | - |
| 1777847966 | 16.11° C | 38% | - | 0 mm | 11.18 m/s, 170° | - | - |
| 1777847371 | 16.11° C | 38% | - | 0 mm | 12.07 m/s, 181° | - | - |
| 1777847073 | 16.11° C | 37% | - | 0 mm | 9.39 m/s, 205° | - | - |
| 1777846775 | 16.67° C | 35% | - | 0 mm | 9.83 m/s, 222° | - | - |
| 1777846475 | 16.67° C | 35% | - | 0 mm | 9.83 m/s, 207° | - | - |
| 1777846235 | 16.67° C | 33% | - | 0 mm | 12.07 m/s, 197° | - | - |
| 1777846177 | 16.67° C | 33% | - | 0 mm | 12.07 m/s, 197° | - | - |
| 1777845964 | 16.67° C | 34% | - | 0 mm | 11.18 m/s, 201° | - | - |
| 1777845879 | 16.67° C | 34% | - | 0 mm | 11.18 m/s, 201° | - | - |
| 1777845581 | 16.67° C | 34% | - | 0 mm | 9.83 m/s, 205° | - | - |
| 1777845367 | 17.22° C | 32% | - | 0 mm | 12.52 m/s, 195° | - | - |
* Rain latest hour (hover to see other rain measurements)
** Current wind speed in m/s (hover to see current wind gust speed)